Latest Weather Observations for Hopetoun North

IDW60801

Issued at 2:13 pm WST Saturday 10 December 2022 (issued every 10 minutes, with the page automatically refreshed every 10 minutes)

About weather observations | Map of weather stations | Latest weather observations for WA | Other Formats
Station Details ID: 009961 Name: HOPETOUN NORTH Lat: -33.93 Lon: 120.13 Height: 26.0 m
Data from the previous 72 hours. | See also: Recent months at Hopetoun North
Date/Time
WST
Temp
°C
App
Temp
°C
Dew
Point
°C
Rel
Hum
%
Delta-T
°C
Wind Press
QNH
hPa
Press
MSL
hPa
Rain since
9am
mm
Dir  Spd
km/h
Gust
km/h
Spd
kts
Gust
kts
10/02:00pm 18.9 15.2 9.4 54 5.0 S 19 24 10 13 1018.6 1018.5 0.0
10/01:30pm 19.6 15.9 9.5 52 5.4 S 19 24 10 13 1018.4 1018.3 0.0
10/01:00pm 19.3 15.9 9.2 52 5.3 SSW 17 24 9 13 1018.4 1018.3 0.0
10/12:30pm 19.2 16.2 10.5 57 4.7 S 17 24 9 13 1018.7 1018.6 0.0
10/12:00pm 18.7 15.7 10.8 60 4.3 SSW 17 24 9 13 1018.7 1018.6 0.0
10/11:30am 19.4 15.9 10.9 58 4.6 S 20 28 11 15 1018.8 1018.7 0.0
10/11:00am 19.3 15.7 10.6 57 4.7 SSW 20 28 11 15 1019.0 1018.9 0.0
10/10:30am 19.0 15.6 11.1 60 4.3 S 20 26 11 14 1018.9 1018.8 0.0
10/10:00am 18.8 15.5 10.9 60 4.3 SSW 19 24 10 13 1018.7 1018.6 0.0
10/09:30am 18.4 14.9 10.8 61 4.1 SSW 20 26 11 14 1018.7 1018.6 0.0
10/09:00am 17.8 14.8 10.7 63 3.8 SSW 17 24 9 13 1018.4 1018.3 0.4
10/08:30am 17.0 14.4 10.6 66 3.4 SSW 15 24 8 13 1018.3 1018.2 0.4
10/08:00am 16.7 13.5 11.4 71 2.9 S 19 26 10 14 1018.2 1018.1 0.4
10/07:30am 16.8 13.6 11.9 73 2.7 SSW 20 26 11 14 1017.8 1017.7 0.4
10/07:00am 16.2 13.0 13.1 82 1.7 SSW 22 30 12 16 1017.4 1017.3 0.4
10/06:30am 16.4 13.2 13.1 81 1.8 SSW 22 32 12 17 1016.9 1016.8 0.4
10/06:00am 16.2 12.9 13.9 86 1.3 SSW 24 32 13 17 1016.6 1016.5 0.4
10/05:30am 16.6 15.0 12.8 78 2.1 SSW 13 19 7 10 1016.2 1016.1 0.4
10/05:00am 16.4 14.7 12.6 78 2.1 SSW 13 20 7 11 1015.7 1015.6 0.4
10/04:30am 16.3 14.2 12.5 78 2.1 SSW 15 20 8 11 1015.6 1015.5 0.4
10/04:00am 16.1 14.2 11.9 76 2.3 SSW 13 19 7 10 1015.0 1015.0 0.4
10/03:30am 16.1 13.3 12.7 80 1.9 SSW 19 24 10 13 1014.8 1014.8 0.4
10/03:00am 16.1 13.4 13.6 85 1.4 SSW 20 30 11 16 1014.7 1014.7 0.4
10/02:30am 15.7 14.0 13.7 88 1.1 SSW 15 26 8 14 1014.6 1014.6 0.4
10/02:00am 16.0 15.6 14.0 88 1.1 SW 9 20 5 11 1014.6 1014.6 0.2
10/01:30am 15.2 15.4 13.1 87 1.2 SSW 4 6 2 3 1014.6 1014.6 0.0
10/01:00am 15.3 15.0 12.8 85 1.4 SSW 6 7 3 4 1014.6 1014.6 0.0
10/12:30am 15.6 15.4 12.9 84 1.5 SSW 6 9 3 5 1014.5 1014.5 0.0
10/12:00am 15.6 15.2 12.9 84 1.5 SSW 7 9 4 5 1014.7 1014.7 0.0
 
Date/Time
WST
Temp
°C
App
Temp
°C
Dew
Point
°C
Rel
Hum
%
Delta-T
°C
Wind Press
QNH
hPa
Press
MSL
hPa
Rain since
9am
mm
Dir  Spd
km/h
Gust
km/h
Spd
kts
Gust
kts
09/11:30pm 16.3 15.5 13.0 81 1.8 SSW 9 17 5 9 1014.6 1014.6 0.0
09/11:00pm 17.0 15.4 12.9 77 2.3 SSW 13 17 7 9 1014.7 1014.7 0.0
09/10:30pm 16.6 14.8 12.2 75 2.4 SSW 13 17 7 9 1014.7 1014.7 0.0
09/10:00pm 16.3 15.1 12.7 79 2.0 S 11 17 6 9 1014.6 1014.6 0.0
09/09:30pm 16.5 15.3 12.7 78 2.1 S 11 15 6 8 1014.5 1014.5 0.0
09/09:00pm 16.5 15.2 12.5 77 2.2 S 11 17 6 9 1014.1 1014.1 0.0
09/08:30pm 16.6 15.3 12.6 77 2.2 S 11 15 6 8 1013.7 1013.7 0.0
09/08:00pm 16.5 14.2 11.9 74 2.5 S 15 22 8 12 1013.2 1013.2 0.0
09/07:30pm 16.7 15.0 12.5 76 2.3 S 13 20 7 11 1013.1 1013.1 0.0
09/07:00pm 16.9 15.5 12.2 74 2.6 S 11 17 6 9 1012.7 1012.7 0.0
09/06:30pm 17.7 15.5 12.2 70 3.0 S 15 20 8 11 1012.3 1012.3 0.0
09/06:00pm 18.1 15.5 11.9 67 3.4 S 17 24 9 13 1012.0 1012.0 0.0
09/05:30pm 18.6 16.0 12.1 66 3.6 S 17 22 9 12 1011.6 1011.6 0.0
09/05:00pm 19.5 16.7 12.5 64 3.9 S 19 24 10 13 1011.3 1011.3 0.0
09/04:30pm 19.7 17.3 12.5 63 4.0 S 17 22 9 12 1011.0 1011.0 0.0
09/04:00pm 19.6 17.0 12.1 62 4.2 SSE 17 24 9 13 1010.9 1010.9 0.0
09/03:30pm 19.6 16.6 12.1 62 4.2 S 19 26 10 14 1010.9 1010.9 0.0
09/03:00pm 20.0 17.2 12.7 63 4.1 S 19 26 10 14 1011.0 1011.0 0.0
09/02:30pm 19.5 16.5 12.0 62 4.2 S 19 24 10 13 1011.1 1011.1 0.0
09/02:00pm 19.9 17.1 12.7 63 4.1 S 19 26 10 14 1011.0 1011.0 0.0
09/01:30pm 19.0 16.4 13.2 69 3.3 S 19 28 10 15 1011.2 1011.2 0.0
09/01:00pm 19.0 16.0 12.7 67 3.5 SSW 20 30 11 16 1011.2 1011.2 0.0
09/12:30pm 18.8 15.3 12.3 66 3.6 SSW 22 30 12 16 1011.3 1011.3 0.0
09/12:00pm 18.9 16.1 13.3 70 3.2 S 20 28 11 15 1011.4 1011.4 0.0
09/11:30am 19.1 16.5 14.8 76 2.5 S 22 30 12 16 1011.3 1011.3 0.0
09/11:00am 19.1 16.2 14.1 73 2.9 SSW 22 28 12 15 1011.3 1011.3 0.0
09/10:30am 20.5 18.3 14.8 70 3.3 SSW 20 30 11 16 1011.2 1011.2 0.0
09/10:00am 20.4 18.4 15.6 74 2.9 SW 20 28 11 15 1011.0 1011.0 0.0
09/09:30am 20.1 18.0 15.1 73 2.9 SSW 20 26 11 14 1011.0 1011.0 0.0
09/09:00am 19.8 17.6 15.0 74 2.8 SW 20 26 11 14 1010.8 1010.8 0.0
09/08:30am 20.1 18.2 15.7 76 2.6 SSW 20 28 11 15 1010.4 1010.4 0.0
09/08:00am 19.8 18.1 15.7 77 2.4 SW 19 26 10 14 1010.3 1010.3 0.0
09/07:30am 19.6 18.1 15.3 76 2.5 SW 17 24 9 13 1010.2 1010.2 0.0
09/07:00am 19.1 18.1 15.6 80 2.1 SW 15 20 8 11 1010.0 1010.0 0.0
09/06:30am 18.7 17.8 15.8 83 1.7 SW 15 20 8 11 1009.8 1009.8 0.0
09/06:00am 17.7 17.0 15.3 86 1.4 SW 13 19 7 10 1009.5 1009.5 0.0
09/05:30am 16.9 16.9 15.2 90 1.0 SW 9 15 5 8 1009.3 1009.3 0.0
09/05:00am 16.3 16.4 15.5 95 0.5 WSW 9 13 5 7 1009.3 1009.3 0.0
09/04:30am 16.1 16.6 15.5 96 0.3 W 7 9 4 5 1009.1 1009.1 0.0
09/04:00am 16.4 17.1 15.6 95 0.5 WSW 6 9 3 5 1008.8 1008.8 0.0
09/03:30am 17.0 17.6 15.9 93 0.6 WSW 7 13 4 7 1008.7 1008.7 0.0
09/03:00am 17.1 17.8 16.0 93 0.7 WSW 7 11 4 6 1008.8 1008.8 0.0
09/02:30am 17.0 16.4 15.7 92 0.8 SW 13 17 7 9 1008.5 1008.5 0.0
09/02:00am 17.2 16.8 16.1 93 0.7 SW 13 17 7 9 1008.6 1008.6 0.0
09/01:30am 17.1 16.4 16.3 95 0.5 SW 15 19 8 10 1008.5 1008.5 0.0
09/01:00am 16.9 17.2 16.1 95 0.5 SW 9 15 5 8 1008.6 1008.6 0.0
09/12:30am 16.7 17.0 15.9 95 0.5 SW 9 13 5 7 1008.6 1008.6 0.0
09/12:00am 17.1 18.2 16.6 97 0.3 WSW 6 13 3 7 1008.7 1008.7 0.0
 
Date/Time
WST
Temp
°C
App
Temp
°C
Dew
Point
°C
Rel
Hum
%
Delta-T
°C
Wind Press
QNH
hPa
Press
MSL
hPa
Rain since
9am
mm
Dir  Spd
km/h
Gust
km/h
Spd
kts
Gust
kts
08/11:30pm 16.6 17.4 16.3 98 0.2 WSW 7 11 4 6 1008.9 1008.9 0.0
08/11:00pm 15.5 15.8 15.0 97 0.3 WSW 7 9 4 5 1008.8 1008.8 0.0
08/10:30pm 14.9 15.5 14.3 96 0.3 WSW 4 9 2 5 1008.4 1008.4 0.0
08/10:00pm 15.7 17.3 14.9 95 0.5 CALM 0 2 0 1 1007.8 1007.8 0.0
08/09:30pm 15.8 16.3 15.0 95 0.5 NE 6 7 3 4 1007.5 1007.5 0.0
08/09:00pm 16.1 16.1 15.1 94 0.6 NE 9 9 5 5 1007.4 1007.4 0.0
08/08:30pm 16.6 17.2 15.3 92 0.8 ENE 6 7 3 4 1007.3 1007.3 0.0
08/08:00pm 17.6 17.6 16.3 92 0.8 E 11 15 6 8 1006.9 1006.9 0.0
08/07:30pm 17.7 17.6 16.0 90 1.0 E 11 15 6 8 1006.7 1006.7 0.0
08/07:00pm 18.1 17.6 15.9 87 1.3 E 13 20 7 11 1006.3 1006.3 0.0
08/06:30pm 18.7 17.8 15.9 84 1.7 ESE 15 22 8 12 1006.0 1006.0 0.0
08/06:00pm 19.0 17.3 15.7 81 2.0 SE 19 24 10 13 1005.9 1005.9 0.0
08/05:30pm 19.5 17.6 15.8 79 2.2 SE 20 30 11 16 1005.4 1005.4 0.0
08/05:00pm 20.0 18.2 16.0 78 2.4 ESE 20 28 11 15 1005.1 1005.0 0.0
08/04:30pm 20.2 18.0 16.0 77 2.5 SE 22 32 12 17 1004.8 1004.7 0.0
08/04:00pm 20.3 16.9 15.9 76 2.6 ESE 28 35 15 19 1004.5 1004.4 0.0
08/03:30pm 20.4 17.3 15.6 74 2.9 ESE 26 35 14 19 1004.1 1004.0 0.0
08/03:00pm 21.2 18.4 15.3 69 3.5 SE 24 33 13 18 1004.0 1003.9 0.0
08/02:30pm 21.9 19.1 15.3 66 3.9 SE 24 32 13 17 1004.1 1004.0 0.0
08/02:00pm 23.9 21.9 15.4 59 5.1 SE 20 28 11 15 1004.2 1004.1 0.0
08/01:30pm 26.6 26.9 13.3 43 7.8 WNW 4 9 2 5 1004.5 1004.4 0.0
08/01:00pm 25.8 25.4 13.0 45 7.5 NW 7 15 4 8 1004.9 1004.8 0.0
08/12:30pm 24.4 21.7 13.0 49 6.6 NNE 19 28 10 15 1005.3 1005.2 0.0
08/12:00pm 22.7 19.4 12.9 54 5.6 NNE 22 32 12 17 1005.7 1005.7 0.0
08/11:30am 21.7 17.7 13.1 58 4.9 NNE 26 39 14 21 1005.8 1005.8 0.0
08/11:00am 20.8 16.0 12.8 60 4.6 NNE 30 43 16 23 1005.9 1005.9 0.0
08/10:30am 20.2 15.4 12.9 63 4.1 NE 30 41 16 22 1005.9 1005.9 0.0
08/10:00am 18.9 13.3 12.2 65 3.7 NE 33 50 18 27 1006.3 1006.3 0.0
08/09:30am 18.0 13.1 12.7 71 3.0 NE 30 41 16 22 1007.4 1007.4 0.0
08/09:00am 16.7 11.6 12.0 74 2.6 NE 30 43 16 23 1008.3 1008.3 2.2
08/08:30am 16.3 13.8 12.3 77 2.2 ENE 17 26 9 14 1009.2 1009.2 2.2
08/08:00am 15.4 13.7 12.5 83 1.6 ENE 13 17 7 9 1009.7 1009.7 2.2
08/07:30am 14.9 14.8 12.2 84 1.5 E 4 7 2 4 1010.4 1010.4 2.2
08/07:00am 14.6 13.1 11.9 84 1.5 NE 11 15 6 8 1010.9 1010.9 2.2
08/06:30am 14.5 11.9 12.0 85 1.4 ENE 17 24 9 13 1010.0 1010.0 2.2
08/06:00am 14.3 10.7 11.8 85 1.3 E 22 35 12 19 1009.2 1009.2 2.2
08/05:30am 14.1 11.8 11.8 86 1.2 E 15 22 8 12 1010.0 1010.0 2.2
08/05:00am 13.9 11.2 11.8 87 1.1 E 17 26 9 14 1009.4 1009.4 2.2
08/04:30am 13.9 11.3 12.1 89 1.0 E 17 24 9 13 1009.8 1009.8 2.2
08/04:00am 13.9 10.3 11.9 88 1.1 E 22 37 12 20 1008.7 1008.7 2.2
08/03:30am 14.2 10.7 12.1 87 1.1 E 22 32 12 17 1009.0 1009.0 2.2
08/03:00am 14.0 10.9 12.2 89 1.0 ESE 20 32 11 17 1010.2 1010.2 2.2
08/02:30am 13.7 11.7 12.6 93 0.6 S 15 19 8 10 1010.8 1010.8 2.0
08/02:15am 13.5 12.1 12.2 92 0.7 SW 11 15 6 8 1011.2 1011.2 1.8
08/02:00am 13.6 12.0 11.7 88 1.0 ESE 11 19 6 10 1009.1 1009.1 0.0
08/01:30am 13.9 9.8 11.4 85 1.3 ENE 24 33 13 18 1009.3 1009.3 0.0
08/01:00am 13.9 8.7 11.6 86 1.2 ENE 30 43 16 23 1008.7 1008.7 0.0
08/12:32am 14.7 9.7 11.1 79 1.9 E 28 48 15 26 1008.6 1008.6 0.0
08/12:30am 14.9 10.6 10.9 77 2.1 ENE 24 43 13 23 1009.8 1009.8 0.0
08/12:29am 15.0 11.1 10.8 76 2.2 ENE 22 37 12 20 1010.6 1010.6 0.0
08/12:18am 15.4 11.5 10.8 74 2.4 ENE 22 35 12 19 1012.9 1012.9 0.0
08/12:00am 15.3 11.3 10.5 73 2.5 E 22 37 12 20 1010.9 1010.9 0.0
 
Date/Time
WST
Temp
°C
App
Temp
°C
Dew
Point
°C
Rel
Hum
%
Delta-T
°C
Wind Press
QNH
hPa
Press
MSL
hPa
Rain since
9am
mm
Dir  Spd
km/h
Gust
km/h
Spd
kts
Gust
kts
07/11:30pm 15.6 11.4 11.0 74 2.5 ESE 24 44 13 24 1010.9 1010.9 0.0
07/11:15pm 15.8 11.1 10.8 72 2.7 ENE 26 44 14 24 1010.8 1010.8 0.0
07/11:00pm 16.1 12.0 11.3 73 2.6 ENE 24 35 13 19 1012.8 1012.8 0.0
07/10:30pm 16.2 11.9 12.0 76 2.3 E 26 44 14 24 1011.5 1011.5 0.0
07/10:00pm 16.3 11.6 11.9 75 2.4 E 28 41 15 22 1012.6 1012.6 0.0
07/09:30pm 16.3 12.4 12.1 76 2.3 E 24 39 13 21 1012.8 1012.8 0.0
07/09:00pm 16.4 11.6 11.8 74 2.5 E 28 46 15 25 1013.1 1013.1 0.0
07/08:36pm 16.4 11.6 11.6 73 2.6 E 28 46 15 25 1013.3 1013.3 0.0
07/08:30pm 16.3 12.7 11.7 74 2.5 E 22 35 12 19 1013.4 1013.4 0.0
07/08:00pm 16.4 12.1 12.0 75 2.4 E 26 35 14 19 1013.7 1013.7 0.0
07/07:30pm 16.3 11.5 11.7 74 2.5 E 28 43 15 23 1013.7 1013.7 0.0
07/07:00pm 16.4 13.2 11.8 74 2.5 E 20 33 11 18 1014.0 1014.0 0.0
07/06:30pm 16.5 12.0 11.4 72 2.8 E 26 41 14 22 1013.9 1013.9 0.0
07/06:00pm 17.0 12.1 11.3 69 3.1 ESE 28 41 15 22 1013.7 1013.7 0.0
07/05:30pm 17.6 12.7 11.4 67 3.4 ESE 28 37 15 20 1013.7 1013.7 0.0
07/05:00pm 17.8 12.4 10.9 64 3.7 ESE 30 43 16 23 1013.6 1013.6 0.0
07/04:30pm 17.6 11.2 10.7 64 3.7 ESE 35 48 19 26 1013.7 1013.7 0.0
07/04:00pm 18.0 12.2 10.9 63 3.8 ESE 32 46 17 25 1013.8 1013.8 0.0
07/03:30pm 18.5 12.7 10.8 61 4.2 ESE 32 46 17 25 1014.2 1014.2 0.0
07/03:00pm 18.6 13.2 10.9 61 4.2 ESE 30 44 16 24 1014.8 1014.8 0.0
07/02:30pm 18.6 12.5 10.4 59 4.4 ESE 33 44 18 24 1015.3 1015.3 0.0

Other formats

Comma delimited format used in spreadsheet applications
http://www.bom.gov.au/fwo/IDW60801/IDW60801.95635.axf

JavaScript Object Notation format (JSON) in row-major order
http://www.bom.gov.au/fwo/IDW60801/IDW60801.95635.json

Data quality

Most of these data are generated automatically and are frequently updated. Quality checks on data are not normally performed. It is possible for incorrect values to appear. Refer to information at About Latest Weather Observations and please check the disclaimer before using these data.